Ashley, Ohio
Current Conditions -  °F | °C
As of 6:17 AM on Saturday 01 Nov 2014 (Local Time) from KDLZ Reporting Station
Overcast Overcast  
Wind Chill: -4°   Ceiling: 2000
Heat Index:   Visibility: 10mi
Dew Point:   Wind: 17mph
Humidity: 93%   Direction: 350°N
Pressure: 30.05"   Gusts: 24mph
Location:  40.41°N, 82.96°W
Report Text: KDLZ 011017Z AUTO 35015G21KT 10SM SCT013 OVC020 02/01 A3005 RMK AO2
Loading
Personal Weather Stations






























Interactive Weather Map
Tropical Storm Tracking
New forecast layout! Learn more

10-Day Weather Forecast

Advertisements
Track Severe Weather on mobile